Olivia Sylvie — FMIF — position and weather

sailwx.info

Track history (hours):
 
Tides and Currents Weather Stations Pressure Air Temp Water Temp Dewpoint Dewpoint Depression Visibility Wind Speed Wind Dir Waves Ship Positions

Olivia Sylvie

Last reported at 2014-Nov-05 17:21 UTC. Time now 2014-Nov-23 02:22 UTC.
Position N 43°32' E 004°08'.
Warning: this ship's position is 17 days out of date.

Length 23 m.

Type: Fishing. MMSI: 228236800.

Date/timePositionNaut miles runAvg speedWind from/ knotsBaromVisibWave heightAir tempDewpointWater temp
2014-Nov-05 17:21N 43°32' E 004°08'0 0.0
2014-Nov-05 16:29N 43°32' E 004°08'0 0.0
2014-Nov-05 11:09N 43°32' E 004°08'3 4.3
2014-Nov-05 10:28N 43°30' E 004°06'9 8.2
2014-Nov-05 09:25N 43°25' E 004°16'26 8.8
2014-Nov-05 06:26N 43°18' E 004°50'8 9.3
2014-Nov-05 05:33N 43°24' E 004°59'1 0.0
2014-Nov-03 10:33N 43°24' E 004°60'0 0.0
2014-Nov-03 09:34N 43°24' E 004°60'0 0.0
2014-Nov-03 08:33N 43°24' E 004°60'  
2014-Oct-31 15:25N 43°24' E 004°60'0 0.0
2014-Oct-31 14:33N 43°24' E 004°60'0 0.0
2014-Oct-31 13:33N 43°24' E 004°60'2 2.2
2014-Oct-31 12:33N 43°22' E 004°59'3 3.5
2014-Oct-31 11:33N 43°19' E 005°00'3 3.0
2014-Oct-31 10:33N 43°16' E 005°00'4 3.8
2014-Oct-31 09:32N 43°14' E 004°56'4 1.0
2014-Oct-31 05:22N 43°16' E 004°51'3 4.2
2014-Oct-31 04:33N 43°17' E 004°55'7 7.3
2014-Oct-31 03:33N 43°24' E 004°59'0 0.0
2014-Oct-30 16:32N 43°24' E 004°60'0 0.0
2014-Oct-30 15:33N 43°24' E 004°60'3 2.5
2014-Oct-30 14:33N 43°22' E 004°58'9 7.3
2014-Oct-30 13:19N 43°13' E 004°56'3 3.5
2014-Oct-30 12:20N 43°12' E 005°01'3 3.4
2014-Oct-30 11:22N 43°11' E 005°05'12 1.5
2014-Oct-30 03:33N 43°22' E 004°58'2 0.2
2014-Oct-29 17:34N 43°24' E 004°60'0 0.2
2014-Oct-29 16:34N 43°24' E 004°59'0 0.0
2014-Oct-29 15:34N 43°24' E 004°59'4 4.4
2014-Oct-29 14:34N 43°20' E 004°59'4 4.3
2014-Oct-29 13:33N 43°16' E 004°58'3 3.2
2014-Oct-29 12:28N 43°13' E 004°55'7 2.1
2014-Oct-29 09:18N 43°13' E 005°04'6 1.3
2014-Oct-29 04:29N 43°16' E 004°57'8 8.6
2014-Oct-29 03:34N 43°24' E 004°60'0 0.0
2014-Oct-28 16:17N 43°24' E 004°60'0 0.0
2014-Oct-28 15:33N 43°24' E 004°60'0 0.0
2014-Oct-28 14:33N 43°24' E 004°60'3 2.9
2014-Oct-28 13:33N 43°21' E 004°59'4 3.6
2014-Oct-28 12:33N 43°18' E 005°01'3 3.0
2014-Oct-28 11:33N 43°16' E 004°59'6 1.9
2014-Oct-28 08:26N 43°12' E 005°06'8 1.8
2014-Oct-28 04:10N 43°16' E 004°57'5 8.7
2014-Oct-28 03:33N 43°22' E 004°58'3 0.3
2014-Oct-27 17:30N 43°24' E 004°60'0 0.0
2014-Oct-27 16:33N 43°24' E 004°60'0 0.4
2014-Oct-27 15:33N 43°24' E 004°59'6 5.6
2014-Oct-27 14:34N 43°19' E 004°58'7 1.1
2014-Oct-27 08:32N 43°12' E 004°55'5 1.1
2014-Oct-27 04:14N 43°17' E 004°57'6 9.2
2014-Oct-27 03:33N 43°23' E 004°59'  
Track history (hours):
 
Tides and Currents Weather Stations Pressure Air Temp Water Temp Dewpoint Dewpoint Depression Visibility Wind Speed Wind Dir Waves Ship Positions

Olivia Sylvie

Last reported at 2014-Nov-05 17:21 UTC. Time now 2014-Nov-23 02:22 UTC.
Position N 43°32' E 004°08'.
Warning: this ship's position is 17 days out of date.

Length 23 m.

Type: Fishing. MMSI: 228236800.

Date/timePositionNaut miles runAvg speedWind from/ knotsBaromVisibWave heightAir tempDewpointWater temp
2014-Nov-05 17:21N 43°32' E 004°08'0 0.0
2014-Nov-05 16:29N 43°32' E 004°08'0 0.0
2014-Nov-05 11:09N 43°32' E 004°08'3 4.3
2014-Nov-05 10:28N 43°30' E 004°06'9 8.2
2014-Nov-05 09:25N 43°25' E 004°16'26 8.8
2014-Nov-05 06:26N 43°18' E 004°50'8 9.3
2014-Nov-05 05:33N 43°24' E 004°59'1 0.0
2014-Nov-03 10:33N 43°24' E 004°60'0 0.0
2014-Nov-03 09:34N 43°24' E 004°60'0 0.0
2014-Nov-03 08:33N 43°24' E 004°60'  
2014-Oct-31 15:25N 43°24' E 004°60'0 0.0
2014-Oct-31 14:33N 43°24' E 004°60'0 0.0
2014-Oct-31 13:33N 43°24' E 004°60'2 2.2
2014-Oct-31 12:33N 43°22' E 004°59'3 3.5
2014-Oct-31 11:33N 43°19' E 005°00'3 3.0
2014-Oct-31 10:33N 43°16' E 005°00'4 3.8
2014-Oct-31 09:32N 43°14' E 004°56'4 1.0
2014-Oct-31 05:22N 43°16' E 004°51'3 4.2
2014-Oct-31 04:33N 43°17' E 004°55'7 7.3
2014-Oct-31 03:33N 43°24' E 004°59'0 0.0
2014-Oct-30 16:32N 43°24' E 004°60'0 0.0
2014-Oct-30 15:33N 43°24' E 004°60'3 2.5
2014-Oct-30 14:33N 43°22' E 004°58'9 7.3
2014-Oct-30 13:19N 43°13' E 004°56'3 3.5
2014-Oct-30 12:20N 43°12' E 005°01'3 3.4
2014-Oct-30 11:22N 43°11' E 005°05'12 1.5
2014-Oct-30 03:33N 43°22' E 004°58'2 0.2
2014-Oct-29 17:34N 43°24' E 004°60'0 0.2
2014-Oct-29 16:34N 43°24' E 004°59'0 0.0
2014-Oct-29 15:34N 43°24' E 004°59'4 4.4
2014-Oct-29 14:34N 43°20' E 004°59'4 4.3
2014-Oct-29 13:33N 43°16' E 004°58'3 3.2
2014-Oct-29 12:28N 43°13' E 004°55'7 2.1
2014-Oct-29 09:18N 43°13' E 005°04'6 1.3
2014-Oct-29 04:29N 43°16' E 004°57'8 8.6
2014-Oct-29 03:34N 43°24' E 004°60'0 0.0
2014-Oct-28 16:17N 43°24' E 004°60'0 0.0
2014-Oct-28 15:33N 43°24' E 004°60'0 0.0
2014-Oct-28 14:33N 43°24' E 004°60'3 2.9
2014-Oct-28 13:33N 43°21' E 004°59'4 3.6
2014-Oct-28 12:33N 43°18' E 005°01'3 3.0
2014-Oct-28 11:33N 43°16' E 004°59'6 1.9
2014-Oct-28 08:26N 43°12' E 005°06'8 1.8
2014-Oct-28 04:10N 43°16' E 004°57'5 8.7
2014-Oct-28 03:33N 43°22' E 004°58'3 0.3
2014-Oct-27 17:30N 43°24' E 004°60'0 0.0
2014-Oct-27 16:33N 43°24' E 004°60'0 0.4
2014-Oct-27 15:33N 43°24' E 004°59'6 5.6
2014-Oct-27 14:34N 43°19' E 004°58'7 1.1
2014-Oct-27 08:32N 43°12' E 004°55'5 1.1
2014-Oct-27 04:14N 43°17' E 004°57'6 9.2
2014-Oct-27 03:33N 43°23' E 004°59'  

Dump ship's entire track history